Dexter, Kentucky
Current Conditions -  °F | °C
As of 11:15 PM on Saturday 25 Oct 2014 (Local Time) from KCEY Reporting Station
Clear Clear  
Wind Chill: 57°   Ceiling: Unl
Heat Index: 57°   Visibility: 9mi
Dew Point: 57°   Wind: 3mph
Humidity: 100%   Direction: 230°SW
Pressure: 30.01"   Gusts: NA
Location:  36.74°N, 88.3°W
Report Text: KCEY 260415Z AUTO 23003KT 9SM CLR 14/14 A3001 RMK AO1
Loading
Personal Weather Stations






























Interactive Weather Map
Tropical Storm Tracking
New forecast layout! Learn more

10-Day Weather Forecast

Advertisements
Track Severe Weather on mobile